Time;durP1;ratioP1;P1;durP2;ratioP2;P2;SDS_P1;SDS_P2;PMS_P1;PMS_P2;Temp;Humidity;BMP_temperature;BMP_pressure;BME280_temperature;BME280_humidity;BME280_pressure;Samples;Min_cycle;Max_cycle;Signal;HPM_P1;HPM_P2
2021/10/19 00:01:15;;;;;;;8.38;6.00;;;13.20;96.70;;;;;;5119397;27;20043;-80
2021/10/19 00:03:43;;;;;;;8.70;6.57;;;13.20;96.70;;;;;;5104553;27;20062;-80
2021/10/19 00:06:12;;;;;;;11.55;6.25;;;13.20;96.70;;;;;;5101471;27;20092;-80
2021/10/19 00:08:40;;;;;;;7.57;6.07;;;13.10;96.70;;;;;;5100223;27;20480;-80
2021/10/19 00:11:10;;;;;;;8.43;6.10;;;13.10;96.70;;;;;;5101563;27;20429;-80
2021/10/19 00:13:38;;;;;;;10.43;5.97;;;13.10;96.70;;;;;;5100206;27;20688;-80
2021/10/19 00:16:08;;;;;;;6.75;5.45;;;13.20;96.70;;;;;;5119508;27;20518;-80
2021/10/19 00:18:38;;;;;;;9.25;5.85;;;13.20;96.70;;;;;;5103877;27;20049;-80
2021/10/19 00:21:06;;;;;;;7.65;5.60;;;13.10;96.70;;;;;;5086830;27;20046;-80
2021/10/19 00:23:35;;;;;;;6.93;5.45;;;13.10;96.70;;;;;;5102796;27;20088;-80
2021/10/19 00:26:03;;;;;;;8.65;5.50;;;13.00;96.70;;;;;;5120903;27;20045;-80
2021/10/19 00:28:31;;;;;;;6.75;5.47;;;12.90;96.70;;;;;;5122121;27;20051;-80
2021/10/19 00:30:59;;;;;;;7.57;5.60;;;12.90;96.70;;;;;;5098248;27;20561;-80
2021/10/19 00:33:27;;;;;;;9.48;6.20;;;12.90;96.70;;;;;;5102670;27;20042;-80
2021/10/19 00:35:57;;;;;;;9.38;5.72;;;12.90;96.70;;;;;;5101513;27;20561;-80
2021/10/19 00:38:25;;;;;;;8.98;5.60;;;12.90;96.70;;;;;;5100732;27;20397;-80
2021/10/19 00:40:54;;;;;;;8.13;5.78;;;12.80;96.70;;;;;;5116549;27;20039;-80
2021/10/19 00:43:24;;;;;;;11.50;5.95;;;12.70;96.70;;;;;;5097392;28;20040;-80
2021/10/19 00:45:53;;;;;;;11.73;5.90;;;12.70;96.70;;;;;;5097764;28;20069;-80
2021/10/19 00:48:24;;;;;;;8.60;5.65;;;12.70;96.70;;;;;;5101972;28;20234;-80
2021/10/19 00:50:53;;;;;;;9.60;6.03;;;12.80;96.70;;;;;;5120049;28;20477;-80
2021/10/19 00:53:23;;;;;;;11.07;6.60;;;12.70;96.70;;;;;;5103314;28;20047;-80
2021/10/19 00:55:56;;;;;;;8.32;5.93;;;12.50;96.70;;;;;;5085233;28;20107;-80
2021/10/19 00:58:25;;;;;;;9.20;5.85;;;12.40;96.70;;;;;;5118388;28;20411;-80
2021/10/19 01:00:53;;;;;;;7.47;5.72;;;12.40;96.70;;;;;;5098684;28;20438;-80
2021/10/19 01:03:21;;;;;;;7.07;5.38;;;12.40;96.70;;;;;;5122391;28;20066;-80
2021/10/19 01:05:50;;;;;;;8.52;5.43;;;12.40;96.70;;;;;;5120758;28;20664;-80
2021/10/19 01:08:18;;;;;;;8.35;5.50;;;12.40;96.70;;;;;;5119964;28;20092;-80
2021/10/19 01:10:49;;;;;;;10.02;5.78;;;12.40;96.70;;;;;;5108731;28;20444;-80
2021/10/19 01:13:17;;;;;;;7.13;5.78;;;12.40;96.70;;;;;;5101969;28;20043;-80
2021/10/19 01:15:47;;;;;;;8.13;5.18;;;12.30;96.70;;;;;;5098951;28;20035;-80
2021/10/19 01:18:17;;;;;;;7.72;5.50;;;12.30;96.70;;;;;;5119387;28;20117;-80
2021/10/19 01:20:46;;;;;;;8.43;5.35;;;12.30;96.70;;;;;;5120586;28;20146;-80
2021/10/19 01:23:15;;;;;;;7.40;5.00;;;12.20;96.70;;;;;;5100740;28;20671;-80
2021/10/19 01:25:44;;;;;;;8.90;5.20;;;12.10;96.70;;;;;;5102954;28;20147;-80
2021/10/19 01:28:12;;;;;;;8.15;6.20;;;12.20;96.70;;;;;;5101596;28;20062;-80
2021/10/19 01:30:41;;;;;;;8.75;6.20;;;12.30;96.70;;;;;;5103775;28;20076;-80
2021/10/19 01:33:10;;;;;;;9.23;6.35;;;12.20;96.70;;;;;;5083056;28;20236;-79
2021/10/19 01:35:40;;;;;;;8.77;6.03;;;12.20;96.70;;;;;;5102564;27;20130;-80
2021/10/19 01:38:12;;;;;;;8.55;5.90;;;12.10;96.70;;;;;;5101009;28;20451;-78
2021/10/19 01:40:41;;;;;;;8.88;6.07;;;12.10;96.70;;;;;;5104883;28;20590;-79
2021/10/19 01:43:10;;;;;;;9.68;5.88;;;12.10;96.70;;;;;;5095716;28;20040;-78
2021/10/19 01:45:38;;;;;;;11.52;6.30;;;12.10;96.70;;;;;;5104035;28;20104;-78
2021/10/19 01:48:07;;;;;;;8.77;6.15;;;12.00;96.70;;;;;;5101235;28;20138;-79
2021/10/19 01:50:37;;;;;;;7.05;5.20;;;11.90;96.70;;;;;;5101265;28;20166;-79
2021/10/19 01:53:06;;;;;;;11.18;6.10;;;11.80;96.70;;;;;;5102606;28;20040;-78
2021/10/19 01:55:37;;;;;;;7.50;5.28;;;11.90;96.70;;;;;;5086970;28;20097;-78
2021/10/19 01:58:05;;;;;;;8.35;5.88;;;11.90;96.70;;;;;;5095398;27;20046;-76
2021/10/19 02:00:35;;;;;;;8.15;5.88;;;11.80;96.70;;;;;;5101327;28;20085;-75
2021/10/19 02:03:04;;;;;;;13.25;5.97;;;11.70;96.70;;;;;;5103729;28;20078;-76
2021/10/19 02:05:33;;;;;;;8.77;5.15;;;11.70;96.70;;;;;;5096076;28;20050;-76
2021/10/19 02:08:03;;;;;;;6.20;5.20;;;11.70;96.70;;;;;;5103182;28;20454;-76
2021/10/19 02:10:32;;;;;;;10.88;5.95;;;11.60;96.70;;;;;;5102514;28;20051;-78
2021/10/19 02:13:04;;;;;;;8.95;5.47;;;11.70;96.70;;;;;;5104413;28;20043;-80
2021/10/19 02:15:33;;;;;;;10.55;5.38;;;11.70;96.70;;;;;;5101764;28;20111;-80
2021/10/19 02:18:02;;;;;;;6.78;5.03;;;11.60;96.70;;;;;;5101513;28;20028;-80
2021/10/19 02:20:31;;;;;;;8.45;5.75;;;11.50;96.70;;;;;;5102481;28;20100;-80
2021/10/19 02:23:00;;;;;;;10.55;5.72;;;11.50;96.70;;;;;;5103675;28;20040;-81
2021/10/19 02:25:28;;;;;;;10.63;4.85;;;11.50;96.70;;;;;;5084593;28;20059;-80
2021/10/19 02:27:57;;;;;;;7.38;5.10;;;11.40;96.70;;;;;;5086065;28;20041;-80
2021/10/19 02:30:27;;;;;;;7.82;5.25;;;11.50;96.70;;;;;;5084762;28;20096;-79
2021/10/19 02:32:56;;;;;;;7.70;4.90;;;11.60;96.70;;;;;;5099587;28;20120;-80
2021/10/19 02:35:25;;;;;;;9.93;5.57;;;11.60;96.70;;;;;;5100966;28;20039;-80
2021/10/19 02:37:57;;;;;;;9.48;5.13;;;11.50;96.70;;;;;;5121374;27;20046;-80
2021/10/19 02:40:27;;;;;;;10.63;5.43;;;11.50;96.70;;;;;;5103324;27;20047;-80
2021/10/19 02:42:55;;;;;;;7.03;5.20;;;11.50;96.70;;;;;;5104609;27;20129;-80
2021/10/19 02:45:23;;;;;;;8.70;5.07;;;11.50;96.70;;;;;;5087546;27;20515;-80
2021/10/19 02:47:53;;;;;;;8.75;4.93;;;11.60;96.70;;;;;;5090490;27;20618;-80
2021/10/19 02:50:21;;;;;;;8.40;4.70;;;11.60;96.70;;;;;;5103459;27;20496;-80
2021/10/19 02:52:49;;;;;;;6.57;4.53;;;11.60;96.70;;;;;;5098800;27;20080;-80
2021/10/19 02:55:17;;;;;;;8.27;4.82;;;11.70;96.70;;;;;;5103120;27;20031;-80
2021/10/19 02:57:46;;;;;;;7.38;4.55;;;11.60;96.70;;;;;;5102548;27;20039;-80
2021/10/19 03:00:16;;;;;;;7.75;4.50;;;11.60;96.70;;;;;;5123013;27;20068;-80
2021/10/19 03:02:45;;;;;;;6.53;5.00;;;11.60;96.70;;;;;;5124760;27;20081;-80
2021/10/19 03:05:15;;;;;;;7.88;4.95;;;11.50;96.70;;;;;;5123361;27;20039;-81
2021/10/19 03:07:44;;;;;;;5.72;4.47;;;11.40;96.70;;;;;;5088884;27;20673;-80
2021/10/19 03:10:14;;;;;;;6.05;4.93;;;11.40;96.70;;;;;;5101645;27;20138;-80
2021/10/19 03:12:43;;;;;;;8.15;4.70;;;11.30;96.70;;;;;;5101297;27;20067;-80
2021/10/19 03:15:11;;;;;;;7.35;5.22;;;11.30;96.70;;;;;;5089452;27;20403;-81
2021/10/19 03:17:39;;;;;;;6.93;4.88;;;11.30;96.70;;;;;;5104666;27;20489;-80
2021/10/19 03:20:08;;;;;;;5.97;4.65;;;11.30;96.70;;;;;;5103793;27;20056;-80
2021/10/19 03:22:37;;;;;;;5.32;4.10;;;11.20;96.70;;;;;;5103993;27;20465;-80
2021/10/19 03:25:07;;;;;;;7.65;4.18;;;11.20;96.70;;;;;;5104575;27;20060;-80
2021/10/19 03:27:35;;;;;;;5.63;4.13;;;11.10;96.70;;;;;;5088130;27;20041;-80
2021/10/19 03:30:04;;;;;;;8.82;4.72;;;11.10;96.70;;;;;;5104062;27;20047;-80
2021/10/19 03:32:32;;;;;;;6.13;4.70;;;11.10;96.70;;;;;;5102621;27;20035;-81
2021/10/19 03:35:00;;;;;;;6.40;4.85;;;11.10;96.70;;;;;;5119420;27;20027;-80
2021/10/19 03:37:28;;;;;;;6.97;4.95;;;11.10;96.70;;;;;;5103123;27;20432;-80
2021/10/19 03:39:58;;;;;;;6.30;4.50;;;11.10;96.70;;;;;;5123555;27;20046;-78
2021/10/19 03:42:26;;;;;;;7.20;4.60;;;11.10;96.70;;;;;;5081401;27;20039;-79
2021/10/19 03:44:55;;;;;;;10.52;5.18;;;11.00;96.70;;;;;;5120744;27;20039;-78
2021/10/19 03:47:23;;;;;;;6.43;4.72;;;11.00;96.70;;;;;;5087066;27;20445;-77
2021/10/19 03:49:51;;;;;;;6.40;4.70;;;11.10;96.70;;;;;;5082905;27;20093;-78
2021/10/19 03:52:19;;;;;;;7.05;4.93;;;11.10;96.70;;;;;;5119970;27;20156;-78
2021/10/19 03:54:47;;;;;;;7.85;5.00;;;11.10;96.70;;;;;;5121159;27;20400;-78
2021/10/19 03:57:17;;;;;;;6.75;4.78;;;11.00;96.70;;;;;;5098770;27;20051;-78
2021/10/19 03:59:45;;;;;;;6.90;4.53;;;10.90;96.70;;;;;;5103243;27;20086;-78
2021/10/19 04:02:14;;;;;;;7.95;4.53;;;10.80;96.70;;;;;;5113586;27;20043;-78
2021/10/19 04:04:42;;;;;;;8.02;4.63;;;10.70;96.70;;;;;;5121459;27;20046;-78
2021/10/19 04:07:12;;;;;;;6.47;4.22;;;10.70;96.70;;;;;;5100525;27;20496;-78
2021/10/19 04:09:40;;;;;;;7.18;4.72;;;10.70;96.70;;;;;;5103978;27;20063;-78
2021/10/19 04:12:08;;;;;;;4.85;4.18;;;10.70;96.70;;;;;;5082499;27;20050;-78
2021/10/19 04:14:38;;;;;;;6.55;4.20;;;10.70;96.70;;;;;;5099018;27;20043;-78
2021/10/19 04:17:06;;;;;;;6.57;4.40;;;10.70;96.70;;;;;;5102089;27;20366;-78
2021/10/19 04:19:34;;;;;;;6.47;4.45;;;10.70;96.70;;;;;;5104060;27;20103;-81
2021/10/19 04:22:03;;;;;;;6.43;4.22;;;10.60;96.70;;;;;;5103263;27;20039;-80
2021/10/19 04:24:31;;;;;;;6.25;4.50;;;10.60;96.70;;;;;;5101866;27;20588;-80
2021/10/19 04:26:59;;;;;;;4.78;4.28;;;10.70;96.70;;;;;;5103603;27;20050;-80
2021/10/19 04:29:27;;;;;;;8.18;4.70;;;10.70;96.70;;;;;;5121053;27;20057;-79
2021/10/19 04:31:57;;;;;;;8.27;4.82;;;10.80;96.70;;;;;;5120653;27;20070;-80
2021/10/19 04:34:25;;;;;;;5.35;3.95;;;10.80;96.70;;;;;;5102434;27;20049;-80
2021/10/19 04:36:53;;;;;;;5.53;4.15;;;10.80;96.70;;;;;;5095057;27;20047;-80
2021/10/19 04:39:21;;;;;;;7.97;4.20;;;10.80;96.70;;;;;;5100297;27;20437;-80
2021/10/19 04:41:51;;;;;;;6.78;4.47;;;10.80;96.70;;;;;;5086514;28;20062;-80
2021/10/19 04:44:19;;;;;;;6.97;5.28;;;10.80;96.70;;;;;;5121445;27;20040;-80
2021/10/19 04:46:48;;;;;;;5.63;4.10;;;10.70;96.70;;;;;;5122427;27;20065;-80
2021/10/19 04:49:18;;;;;;;7.68;5.00;;;10.70;96.70;;;;;;5102208;28;20047;-80
2021/10/19 04:51:46;;;;;;;7.45;4.78;;;10.70;96.70;;;;;;5100099;28;20172;-80
2021/10/19 04:54:15;;;;;;;7.05;4.40;;;10.60;96.70;;;;;;5102815;28;20038;-80
2021/10/19 04:56:44;;;;;;;8.05;4.35;;;10.60;96.70;;;;;;5121409;27;20039;-80
2021/10/19 04:59:13;;;;;;;5.65;4.85;;;10.60;96.70;;;;;;5108802;28;20044;-81
2021/10/19 05:01:43;;;;;;;9.77;4.93;;;10.70;96.70;;;;;;5100264;28;20035;-81
2021/10/19 05:04:15;;;;;;;9.27;5.00;;;10.60;96.70;;;;;;5095733;28;20039;-80
2021/10/19 05:06:45;;;;;;;6.63;4.95;;;10.60;96.70;;;;;;5112178;28;20560;-80
2021/10/19 05:09:13;;;;;;;8.50;5.18;;;10.50;96.70;;;;;;5101758;27;20073;-80
2021/10/19 05:11:41;;;;;;;7.13;4.60;;;10.50;96.70;;;;;;5125817;27;20035;-80
2021/10/19 05:14:10;;;;;;;10.57;4.63;;;10.60;96.70;;;;;;5105275;27;20129;-80
2021/10/19 05:16:39;;;;;;;6.95;4.28;;;10.60;96.70;;;;;;5124843;27;20391;-80
2021/10/19 05:19:07;;;;;;;5.75;4.50;;;10.50;96.70;;;;;;5103310;27;20046;-80
2021/10/19 05:21:35;;;;;;;6.93;4.68;;;10.50;96.70;;;;;;5107555;27;20329;-80
2021/10/19 05:24:05;;;;;;;6.07;4.75;;;10.40;96.70;;;;;;5117616;27;20043;-80
2021/10/19 05:26:33;;;;;;;6.90;4.32;;;10.50;96.70;;;;;;5107155;27;20546;-79
2021/10/19 05:29:02;;;;;;;9.23;4.70;;;10.40;96.70;;;;;;5121765;27;20492;-80
2021/10/19 05:31:30;;;;;;;9.82;4.70;;;10.30;96.70;;;;;;5106757;27;20228;-80
2021/10/19 05:33:58;;;;;;;7.82;4.88;;;10.30;96.70;;;;;;5124868;27;20118;-80
2021/10/19 05:36:26;;;;;;;7.03;4.60;;;10.30;96.70;;;;;;5107196;27;21011;-80
2021/10/19 05:38:54;;;;;;;7.82;5.05;;;10.40;96.70;;;;;;5124495;27;20062;-80
2021/10/19 05:41:24;;;;;;;7.85;4.75;;;10.40;96.70;;;;;;5105268;27;20055;-79
2021/10/19 05:43:52;;;;;;;8.88;4.75;;;10.40;96.70;;;;;;5105023;27;20438;-80
2021/10/19 05:46:20;;;;;;;9.90;5.22;;;10.40;96.70;;;;;;5104562;27;20043;-80
2021/10/19 05:48:49;;;;;;;7.68;4.80;;;10.40;96.70;;;;;;5124854;27;20047;-80
2021/10/19 05:51:17;;;;;;;10.30;5.53;;;10.50;96.70;;;;;;5104464;27;20297;-81
2021/10/19 05:53:46;;;;;;;9.07;5.25;;;10.40;96.70;;;;;;5102605;27;20107;-80
2021/10/19 05:56:14;;;;;;;8.82;5.60;;;10.40;96.70;;;;;;5122307;27;20095;-80
2021/10/19 05:58:44;;;;;;;9.38;6.10;;;10.40;96.70;;;;;;5105834;27;20062;-80
2021/10/19 06:01:13;;;;;;;10.48;5.97;;;10.30;96.70;;;;;;5121226;27;20042;-80
2021/10/19 06:03:41;;;;;;;8.05;5.35;;;10.30;96.70;;;;;;5124848;27;20417;-80
2021/10/19 06:06:13;;;;;;;9.40;5.53;;;10.30;96.70;;;;;;5102040;27;20041;-80
2021/10/19 06:08:41;;;;;;;7.45;4.80;;;10.30;96.70;;;;;;5090077;27;20051;-80
2021/10/19 06:11:09;;;;;;;9.10;4.97;;;10.30;96.70;;;;;;5123269;27;20088;-80
2021/10/19 06:13:38;;;;;;;7.97;5.15;;;10.30;96.70;;;;;;5124903;27;20130;-80
2021/10/19 06:16:08;;;;;;;8.48;4.90;;;10.40;96.70;;;;;;5089848;27;20077;-80
2021/10/19 06:18:36;;;;;;;10.95;6.35;;;10.40;96.70;;;;;;5103105;27;20047;-80
2021/10/19 06:21:09;;;;;;;8.23;5.20;;;10.40;96.70;;;;;;5118715;27;20047;-80
2021/10/19 06:23:37;;;;;;;7.55;4.68;;;10.40;96.70;;;;;;5124334;27;20038;-80
2021/10/19 06:26:05;;;;;;;8.52;5.72;;;10.50;96.70;;;;;;5104040;27;20139;-80
2021/10/19 06:28:34;;;;;;;8.23;4.78;;;10.50;96.70;;;;;;5100630;27;20077;-81
2021/10/19 06:31:02;;;;;;;8.50;5.47;;;10.50;96.70;;;;;;5101211;27;20035;-80
2021/10/19 06:33:32;;;;;;;8.63;5.20;;;10.40;96.70;;;;;;5105067;27;20203;-80
2021/10/19 06:36:00;;;;;;;8.30;5.78;;;10.50;96.70;;;;;;5105505;27;20162;-80
2021/10/19 06:38:28;;;;;;;7.32;5.15;;;10.50;96.70;;;;;;5089689;27;20047;-81
2021/10/19 06:40:56;;;;;;;9.48;5.25;;;10.60;96.70;;;;;;5106397;27;20035;-76
2021/10/19 06:43:25;;;;;;;11.02;5.35;;;10.60;96.70;;;;;;5105212;27;20070;-77
2021/10/19 06:45:53;;;;;;;7.35;4.90;;;10.70;96.70;;;;;;5120992;27;20351;-77
2021/10/19 06:48:22;;;;;;;10.98;5.72;;;10.80;96.70;;;;;;5104170;27;20047;-78
2021/10/19 06:50:52;;;;;;;5.93;4.55;;;10.90;96.70;;;;;;5102851;27;20048;-77
2021/10/19 06:53:20;;;;;;;7.35;4.82;;;10.80;96.70;;;;;;5102132;27;20055;-77
2021/10/19 06:55:49;;;;;;;9.10;5.30;;;10.90;96.70;;;;;;5080578;27;20067;-77
2021/10/19 06:58:17;;;;;;;11.35;5.68;;;10.90;96.70;;;;;;5122819;27;20103;-78
2021/10/19 07:00:45;;;;;;;8.40;4.88;;;11.00;96.70;;;;;;5100777;27;20054;-76
2021/10/19 07:03:14;;;;;;;7.57;5.47;;;11.10;96.70;;;;;;5103462;27;20038;-78
2021/10/19 07:05:42;;;;;;;8.43;5.13;;;11.10;96.70;;;;;;5104406;27;20384;-78
2021/10/19 07:08:12;;;;;;;9.40;5.50;;;11.10;96.70;;;;;;5104822;27;20532;-79
2021/10/19 07:10:40;;;;;;;6.70;4.97;;;11.10;96.70;;;;;;5122736;27;20458;-78
2021/10/19 07:13:08;;;;;;;8.68;5.38;;;11.20;96.70;;;;;;5122139;27;20156;-77
2021/10/19 07:15:37;;;;;;;6.43;5.30;;;11.20;96.70;;;;;;5095693;27;20036;-75
2021/10/19 07:18:06;;;;;;;7.25;5.43;;;11.20;96.70;;;;;;5122015;27;20050;-77
2021/10/19 07:20:35;;;;;;;8.15;6.75;;;11.30;96.70;;;;;;5104104;27;20413;-76
2021/10/19 07:23:03;;;;;;;12.32;8.73;;;11.30;96.70;;;;;;5121600;27;20113;-77
2021/10/19 07:25:33;;;;;;;11.27;7.63;;;11.30;96.70;;;;;;5121691;27;20492;-79
2021/10/19 07:28:02;;;;;;;10.00;7.47;;;11.30;96.70;;;;;;5120426;27;20031;-79
2021/10/19 07:30:30;;;;;;;9.05;7.13;;;11.40;96.70;;;;;;5122671;27;20051;-79
2021/10/19 07:32:58;;;;;;;11.65;7.32;;;11.50;96.70;;;;;;5084177;27;20151;-76
2021/10/19 07:35:26;;;;;;;10.25;7.43;;;11.70;96.70;;;;;;5122369;27;20110;-80
2021/10/19 07:37:56;;;;;;;13.38;7.57;;;11.70;96.70;;;;;;5122258;27;22102;-80
2021/10/19 07:40:24;;;;;;;15.45;6.85;;;11.70;96.70;;;;;;5104300;27;20044;-83
2021/10/19 07:42:55;;;;;;;14.07;7.18;;;11.80;96.70;;;;;;5105111;27;20201;-84
2021/10/19 07:45:26;;;;;;;13.45;7.40;;;11.90;96.70;;;;;;5101581;27;20047;-87
2021/10/19 07:47:56;;;;;;;10.13;6.70;;;12.00;96.70;;;;;;5105305;27;20056;-86
2021/10/19 07:50:29;;;;;;;12.80;7.07;;;12.10;96.70;;;;;;5106248;27;20042;-85
2021/10/19 07:52:58;;;;;;;11.60;6.13;;;12.20;96.70;;;;;;5101437;27;20031;-80
2021/10/19 07:55:30;;;;;;;11.57;6.53;;;12.30;96.70;;;;;;5102899;27;20043;-79
2021/10/19 07:58:00;;;;;;;10.18;6.55;;;12.50;96.70;;;;;;5097959;27;20440;-80
2021/10/19 08:00:29;;;;;;;10.63;6.28;;;12.60;96.70;;;;;;5115717;27;20032;-80
2021/10/19 08:02:58;;;;;;;11.25;6.85;;;12.70;96.70;;;;;;5085379;27;20054;-80
2021/10/19 08:05:29;;;;;;;9.32;6.65;;;12.80;96.70;;;;;;5085692;27;20046;-80
2021/10/19 08:08:08;;;;;;;8.88;6.18;;;12.80;96.70;;;;;;5102914;27;20094;-80
2021/10/19 08:10:37;;;;;;;10.43;7.18;;;12.90;96.70;;;;;;5117865;27;20118;-80
2021/10/19 08:13:08;;;;;;;11.52;6.78;;;12.90;96.70;;;;;;5102259;27;20062;-80
2021/10/19 08:15:38;;;;;;;11.30;7.45;;;12.90;96.70;;;;;;5097699;27;20410;-78
2021/10/19 08:18:08;;;;;;;9.85;6.95;;;13.00;96.70;;;;;;5117207;27;20071;-79
2021/10/19 08:20:37;;;;;;;9.90;7.05;;;13.00;96.70;;;;;;5119989;27;20233;-79
2021/10/19 08:23:07;;;;;;;8.05;6.82;;;13.10;96.70;;;;;;5084776;27;20050;-79
2021/10/19 08:25:35;;;;;;;8.35;6.43;;;13.20;96.70;;;;;;5101630;27;20496;-78
2021/10/19 08:28:04;;;;;;;8.38;6.38;;;13.30;96.70;;;;;;5102134;27;20161;-79
2021/10/19 08:30:34;;;;;;;8.80;6.38;;;13.30;96.70;;;;;;5097559;27;20447;-78
2021/10/19 08:33:02;;;;;;;9.02;6.05;;;13.30;96.70;;;;;;5117875;27;20400;-78
2021/10/19 08:35:31;;;;;;;9.30;6.00;;;13.40;96.70;;;;;;5100097;27;20031;-78
2021/10/19 08:38:01;;;;;;;10.18;5.93;;;13.50;96.70;;;;;;5118922;27;20519;-78
2021/10/19 08:40:29;;;;;;;8.68;5.95;;;13.50;96.70;;;;;;5118820;27;20143;-78
2021/10/19 08:42:58;;;;;;;9.98;6.70;;;13.60;96.70;;;;;;5086789;28;20142;-79
2021/10/19 08:45:30;;;;;;;8.77;6.40;;;13.70;96.70;;;;;;5118536;27;20537;-78
2021/10/19 08:48:03;;;;;;;9.75;6.97;;;13.80;96.70;;;;;;5085186;27;20039;-78
2021/10/19 08:50:31;;;;;;;10.48;7.00;;;13.90;96.70;;;;;;5078786;28;20143;-78
2021/10/19 08:52:59;;;;;;;10.98;7.53;;;13.90;96.70;;;;;;5102757;28;20055;-77
2021/10/19 08:55:27;;;;;;;10.90;7.55;;;14.00;96.70;;;;;;5101731;28;20075;-77
2021/10/19 08:58:02;;;;;;;11.43;7.85;;;14.10;96.70;;;;;;5102319;28;20126;-78
2021/10/19 09:00:31;;;;;;;10.82;7.60;;;14.20;96.70;;;;;;5117692;28;20043;-77
2021/10/19 09:03:00;;;;;;;13.73;8.48;;;14.20;96.70;;;;;;5099585;28;20067;-78
2021/10/19 09:05:29;;;;;;;10.68;6.35;;;14.40;96.70;;;;;;5101142;28;20047;-78
2021/10/19 09:08:00;;;;;;;13.13;7.65;;;14.40;96.70;;;;;;5115436;28;20131;-77
2021/10/19 09:10:31;;;;;;;9.95;7.50;;;14.60;96.70;;;;;;5120379;28;20046;-79
2021/10/19 09:13:02;;;;;;;10.15;7.65;;;14.80;96.70;;;;;;5120128;28;20535;-78
2021/10/19 09:15:32;;;;;;;13.45;7.47;;;14.90;96.70;;;;;;5099386;28;20454;-78
2021/10/19 09:18:03;;;;;;;10.25;8.10;;;15.00;96.70;;;;;;5100675;28;20440;-77
2021/10/19 09:20:36;;;;;;;9.00;7.35;;;15.20;96.70;;;;;;5103145;28;20043;-77
2021/10/19 09:23:06;;;;;;;12.02;7.13;;;15.30;96.70;;;;;;5101212;28;20058;-79
2021/10/19 09:25:36;;;;;;;8.63;6.88;;;15.50;96.70;;;;;;5102569;28;20066;-79
2021/10/19 09:28:06;;;;;;;9.45;6.97;;;15.50;96.70;;;;;;5097776;28;20553;-78
2021/10/19 09:30:37;;;;;;;11.23;6.63;;;15.50;96.70;;;;;;5117229;28;20074;-79
2021/10/19 09:33:10;;;;;;;10.85;6.65;;;15.50;96.70;;;;;;5100854;28;20584;-78
2021/10/19 09:35:39;;;;;;;11.15;6.55;;;15.50;96.70;;;;;;5116749;28;20043;-79
2021/10/19 09:38:09;;;;;;;10.10;6.78;;;15.60;96.70;;;;;;5099853;28;20492;-79
2021/10/19 09:40:40;;;;;;;7.20;6.10;;;15.60;96.70;;;;;;5099176;28;20045;-79
2021/10/19 09:43:09;;;;;;;10.02;6.95;;;15.70;96.70;;;;;;5081607;28;20404;-79
2021/10/19 09:45:41;;;;;;;10.77;7.18;;;15.70;96.70;;;;;;5102128;28;20039;-79
2021/10/19 09:48:14;;;;;;;8.55;6.35;;;15.60;96.70;;;;;;5101898;28;20043;-78
2021/10/19 09:50:43;;;;;;;8.85;6.47;;;15.60;96.70;;;;;;5094102;28;20374;-79
2021/10/19 09:53:12;;;;;;;10.27;6.47;;;15.50;96.70;;;;;;5118138;28;20047;-79
2021/10/19 09:55:42;;;;;;;11.15;6.95;;;15.50;96.70;;;;;;5120034;27;20056;-78
2021/10/19 09:58:10;;;;;;;7.55;5.80;;;15.50;96.70;;;;;;5103534;27;20122;-79
2021/10/19 10:00:39;;;;;;;7.07;5.82;;;15.70;96.70;;;;;;5101998;27;20168;-79
2021/10/19 10:03:10;;;;;;;11.02;6.45;;;15.80;96.70;;;;;;5102300;27;20516;-80
2021/10/19 10:05:41;;;;;;;8.13;5.72;;;16.00;96.70;;;;;;5106282;27;20051;-79
2021/10/19 10:08:13;;;;;;;9.38;6.25;;;16.20;96.70;;;;;;5104586;27;20055;-79
2021/10/19 10:10:42;;;;;;;9.32;6.50;;;16.30;96.70;;;;;;5097694;27;20046;-78
2021/10/19 10:13:15;;;;;;;11.75;7.35;;;16.40;96.70;;;;;;5123307;27;20851;-79
2021/10/19 10:15:43;;;;;;;8.45;6.72;;;16.70;96.70;;;;;;5105132;27;20441;-79
2021/10/19 10:18:12;;;;;;;8.75;6.95;;;17.00;96.70;;;;;;5122225;27;20124;-79
2021/10/19 10:20:45;;;;;;;8.65;7.53;;;17.10;96.70;;;;;;5090637;27;20138;-79
2021/10/19 10:23:19;;;;;;;8.18;6.25;;;17.20;96.70;;;;;;5122617;27;20043;-79
2021/10/19 10:25:53;;;;;;;8.40;6.22;;;17.20;96.70;;;;;;5104096;27;20036;-79
2021/10/19 10:28:26;;;;;;;9.10;5.82;;;17.20;96.70;;;;;;5124497;27;20500;-79
2021/10/19 10:30:55;;;;;;;8.77;6.00;;;17.20;96.70;;;;;;5104790;27;20043;-79
2021/10/19 10:33:35;;;;;;;7.68;6.13;;;17.30;96.70;;;;;;5105102;27;20754;-79
2021/10/19 10:36:06;;;;;;;7.70;6.38;;;17.40;96.70;;;;;;5098816;27;20075;-79
2021/10/19 10:38:53;;;;;;;9.85;7.00;;;17.50;96.70;;;;;;5122969;27;20035;-79
2021/10/19 10:41:21;;;;;;;;;;;17.50;96.70;;;;;;5095638;27;20044;-80
2021/10/19 10:43:57;;;;;;;6.15;5.03;;;17.70;96.70;;;;;;5088873;27;20014;-79
2021/10/19 10:46:26;;;;;;;6.40;4.95;;;18.00;96.70;;;;;;5123129;27;20043;-79
2021/10/19 10:48:56;;;;;;;6.75;4.85;;;18.10;96.70;;;;;;5104562;27;20043;-79
2021/10/19 10:51:29;;;;;;;6.30;4.07;;;18.10;96.70;;;;;;5122689;27;20477;-79
2021/10/19 10:53:58;;;;;;;8.95;4.43;;;18.10;96.70;;;;;;5084724;27;20043;-80
2021/10/19 10:56:27;;;;;;;5.97;4.30;;;18.00;96.70;;;;;;5121895;27;20403;-80
2021/10/19 10:58:55;;;;;;;10.60;4.47;;;18.00;96.70;;;;;;5104679;27;20035;-78
2021/10/19 11:01:28;;;;;;;7.30;4.50;;;18.10;96.70;;;;;;5104014;27;20126;-79
2021/10/19 11:04:05;;;;;;;8.95;4.65;;;18.10;96.70;;;;;;5101219;27;20039;-79
2021/10/19 11:06:36;;;;;;;10.68;4.30;;;18.10;96.70;;;;;;5121795;27;20111;-79
2021/10/19 11:09:06;;;;;;;5.43;3.80;;;18.20;96.70;;;;;;5103527;27;20476;-80
2021/10/19 11:11:38;;;;;;;8.27;5.07;;;18.40;96.70;;;;;;5124222;27;20507;-79
2021/10/19 11:14:07;;;;;;;9.73;4.43;;;18.30;96.70;;;;;;5103374;27;20074;-77
2021/10/19 11:16:42;;;;;;;10.57;4.75;;;18.20;96.70;;;;;;5101190;27;20050;-77
2021/10/19 11:19:17;;;;;;;7.78;5.03;;;18.30;96.70;;;;;;5102010;27;20472;-76
2021/10/19 11:21:50;;;;;;;7.47;4.95;;;18.50;96.70;;;;;;5121604;27;20127;-78
2021/10/19 11:24:19;;;;;;;6.00;4.70;;;18.80;96.70;;;;;;5099025;27;20143;-76
2021/10/19 11:26:48;;;;;;;6.82;4.38;;;18.90;96.70;;;;;;5101430;27;20047;-79
2021/10/19 11:29:17;;;;;;;8.43;5.20;;;19.00;96.70;;;;;;5117633;27;20600;-79
2021/10/19 11:31:46;;;;;;;6.82;4.50;;;19.20;96.70;;;;;;5103693;27;20070;-80
2021/10/19 11:34:14;;;;;;;5.70;4.68;;;19.50;96.70;;;;;;5085516;27;20035;-80
2021/10/19 11:36:43;;;;;;;6.60;3.92;;;19.80;96.70;;;;;;5101075;28;20466;-79
2021/10/19 11:39:15;;;;;;;7.55;4.60;;;20.10;96.70;;;;;;5100236;28;20071;-77
2021/10/19 11:41:45;;;;;;;5.68;3.92;;;20.20;96.70;;;;;;5098573;28;20051;-77
2021/10/19 11:44:14;;;;;;;5.68;4.35;;;20.10;96.70;;;;;;5098766;28;20065;-77
2021/10/19 11:46:43;;;;;;;9.32;4.18;;;20.10;96.70;;;;;;5098822;28;20309;-77
2021/10/19 11:49:15;;;;;;;7.70;4.13;;;20.20;96.70;;;;;;5101419;28;20092;-77
2021/10/19 11:51:44;;;;;;;6.43;4.30;;;20.40;96.70;;;;;;5095946;28;20530;-77
2021/10/19 11:54:14;;;;;;;6.50;4.35;;;20.80;96.70;;;;;;5100811;28;20127;-77
2021/10/19 11:56:54;;;;;;;8.73;3.97;;;21.00;96.70;;;;;;5098843;28;20040;-76
2021/10/19 11:59:22;;;;;;;5.53;3.97;;;21.20;96.70;;;;;;5091770;27;20067;-77
2021/10/19 12:01:54;;;;;;;4.72;4.07;;;21.20;96.70;;;;;;5097419;28;20066;-77
2021/10/19 12:04:27;;;;;;;5.07;4.20;;;21.20;96.70;;;;;;5100088;28;20818;-77
2021/10/19 12:06:55;;;;;;;5.28;3.97;;;21.10;96.70;;;;;;5099531;28;20053;-78
2021/10/19 12:09:28;;;;;;;6.00;4.43;;;20.90;96.70;;;;;;5100366;28;20047;-78
2021/10/19 12:11:59;;;;;;;4.95;3.90;;;20.80;96.70;;;;;;5099878;28;20070;-77
2021/10/19 12:14:29;;;;;;;4.85;4.10;;;21.00;96.70;;;;;;5097741;28;20051;-77
2021/10/19 12:17:03;;;;;;;6.60;4.03;;;21.00;96.70;;;;;;5076325;28;20497;-77
2021/10/19 12:19:33;;;;;;;7.20;3.80;;;21.10;96.70;;;;;;5098334;28;20040;-77
2021/10/19 12:22:04;;;;;;;4.60;3.95;;;21.40;96.70;;;;;;5101053;28;20039;-78
2021/10/19 12:24:38;;;;;;;5.93;4.20;;;21.50;96.70;;;;;;5113629;27;20105;-77
2021/10/19 12:27:08;;;;;;;6.78;4.05;;;21.50;96.70;;;;;;5096114;28;20620;-78
2021/10/19 12:29:36;;;;;;;6.88;4.78;;;21.50;96.70;;;;;;5099019;28;20031;-77
2021/10/19 12:32:06;;;;;;;7.10;4.10;;;21.30;96.70;;;;;;5080546;28;20485;-77
2021/10/19 12:34:38;;;;;;;7.22;4.53;;;21.40;96.70;;;;;;5083165;28;20493;-77
2021/10/19 12:37:07;;;;;;;6.63;3.95;;;21.50;96.70;;;;;;5099800;28;20055;-77
2021/10/19 12:39:43;;;;;;;5.45;3.70;;;21.50;96.70;;;;;;5117253;27;20747;-77
2021/10/19 12:42:12;;;;;;;5.35;3.38;;;21.50;96.70;;;;;;5099775;28;20047;-78
2021/10/19 12:44:41;;;;;;;6.30;3.15;;;21.40;96.70;;;;;;5097836;28;20119;-77
2021/10/19 12:47:11;;;;;;;7.15;3.35;;;21.30;96.70;;;;;;5099269;28;20058;-77
2021/10/19 12:49:39;;;;;;;7.32;3.35;;;21.50;96.70;;;;;;5074957;28;20044;-77
2021/10/19 12:52:08;;;;;;;5.10;3.42;;;21.40;96.70;;;;;;5097982;28;20533;-77
2021/10/19 12:54:36;;;;;;;7.60;3.67;;;21.30;96.70;;;;;;5098360;28;20605;-77
2021/10/19 12:57:06;;;;;;;5.43;3.42;;;21.30;96.70;;;;;;5098801;28;20055;-77